sensor_id;sensor_type;location;lat;lon;timestamp;pressure;altitude;pressure_sealevel;temperature;humidity
34124;BME280;13153;52.316;21.166;2023-07-13T00:01:54;99936.56;;;25.93;55.70
34124;BME280;13153;52.316;21.166;2023-07-13T00:04:23;99932.03;;;25.93;55.96
34124;BME280;13153;52.316;21.166;2023-07-13T00:06:51;99932.97;;;25.92;55.83
34124;BME280;13153;52.316;21.166;2023-07-13T00:09:18;99945.72;;;25.89;55.83
34124;BME280;13153;52.316;21.166;2023-07-13T00:11:45;99935.94;;;25.86;55.72
34124;BME280;13153;52.316;21.166;2023-07-13T00:14:13;99937.81;;;25.84;55.94
34124;BME280;13153;52.316;21.166;2023-07-13T00:16:41;99946.03;;;25.81;56.05
34124;BME280;13153;52.316;21.166;2023-07-13T00:19:11;99946.25;;;25.77;55.66
34124;BME280;13153;52.316;21.166;2023-07-13T00:21:38;99939.09;;;25.76;55.77
34124;BME280;13153;52.316;21.166;2023-07-13T00:24:07;99937.34;;;25.75;55.92
34124;BME280;13153;52.316;21.166;2023-07-13T00:26:33;99935.66;;;25.72;55.91
34124;BME280;13153;52.316;21.166;2023-07-13T00:28:59;99938.41;;;25.71;56.04
34124;BME280;13153;52.316;21.166;2023-07-13T00:31:26;99930.47;;;25.67;55.91
34124;BME280;13153;52.316;21.166;2023-07-13T00:33:51;99937.72;;;25.65;55.80
34124;BME280;13153;52.316;21.166;2023-07-13T00:36:20;99925.22;;;25.63;56.39
34124;BME280;13153;52.316;21.166;2023-07-13T00:38:46;99922.72;;;25.58;56.42
34124;BME280;13153;52.316;21.166;2023-07-13T00:41:13;99924.75;;;25.53;56.34
34124;BME280;13153;52.316;21.166;2023-07-13T00:43:40;99919.56;;;25.49;56.16
34124;BME280;13153;52.316;21.166;2023-07-13T00:48:41;99920.44;;;25.49;56.68
34124;BME280;13153;52.316;21.166;2023-07-13T00:51:10;99924.19;;;25.45;56.41
34124;BME280;13153;52.316;21.166;2023-07-13T00:53:36;99913.41;;;25.45;56.49
34124;BME280;13153;52.316;21.166;2023-07-13T00:56:03;99924.19;;;25.45;56.49
34124;BME280;13153;52.316;21.166;2023-07-13T00:58:29;99917.91;;;25.45;56.17
34124;BME280;13153;52.316;21.166;2023-07-13T01:00:55;99917.03;;;25.44;56.62
34124;BME280;13153;52.316;21.166;2023-07-13T01:03:21;99923.38;;;25.43;56.43
34124;BME280;13153;52.316;21.166;2023-07-13T01:05:50;99923.53;;;25.40;55.97
34124;BME280;13153;52.316;21.166;2023-07-13T01:08:21;99930.75;;;25.40;56.43
34124;BME280;13153;52.316;21.166;2023-07-13T01:10:56;99929.16;;;25.34;56.35
34124;BME280;13153;52.316;21.166;2023-07-13T01:13:22;99932.00;;;25.31;56.63
34124;BME280;13153;52.316;21.166;2023-07-13T01:15:51;99938.44;;;25.27;56.94
34124;BME280;13153;52.316;21.166;2023-07-13T01:18:24;99936.88;;;25.21;57.01
34124;BME280;13153;52.316;21.166;2023-07-13T01:21:01;99931.44;;;25.23;56.83
34124;BME280;13153;52.316;21.166;2023-07-13T01:23:29;99934.06;;;25.24;57.07
34124;BME280;13153;52.316;21.166;2023-07-13T01:25:56;99922.47;;;25.22;57.00
34124;BME280;13153;52.316;21.166;2023-07-13T01:28:24;99928.91;;;25.18;57.45
34124;BME280;13153;52.316;21.166;2023-07-13T01:30:54;99929.84;;;25.17;57.10
34124;BME280;13153;52.316;21.166;2023-07-13T01:33:20;99931.69;;;25.17;57.16
34124;BME280;13153;52.316;21.166;2023-07-13T01:35:46;99928.97;;;25.17;56.90
34124;BME280;13153;52.316;21.166;2023-07-13T01:38:16;99932.69;;;25.14;56.88
34124;BME280;13153;52.316;21.166;2023-07-13T01:40:43;99938.94;;;25.15;56.82
34124;BME280;13153;52.316;21.166;2023-07-13T01:43:10;99946.13;;;25.14;56.87
34124;BME280;13153;52.316;21.166;2023-07-13T01:45:35;99952.34;;;25.16;57.16
34124;BME280;13153;52.316;21.166;2023-07-13T01:48:01;99966.69;;;25.17;56.95
34124;BME280;13153;52.316;21.166;2023-07-13T01:50:27;99960.47;;;25.15;56.91
34124;BME280;13153;52.316;21.166;2023-07-13T01:52:54;99955.22;;;25.12;56.89
34124;BME280;13153;52.316;21.166;2023-07-13T01:55:21;99958.84;;;25.11;57.21
34124;BME280;13153;52.316;21.166;2023-07-13T01:57:48;99954.41;;;25.10;56.86
34124;BME280;13153;52.316;21.166;2023-07-13T02:00:15;99955.34;;;25.09;56.73
34124;BME280;13153;52.316;21.166;2023-07-13T02:02:41;99951.81;;;25.07;57.20
34124;BME280;13153;52.316;21.166;2023-07-13T02:05:07;99948.19;;;25.08;57.22
34124;BME280;13153;52.316;21.166;2023-07-13T02:07:33;99942.88;;;25.06;57.08
34124;BME280;13153;52.316;21.166;2023-07-13T02:09:59;99947.44;;;25.04;57.42
34124;BME280;13153;52.316;21.166;2023-07-13T02:12:24;99941.31;;;25.00;57.27
34124;BME280;13153;52.316;21.166;2023-07-13T02:14:50;99947.69;;;24.98;57.20
34124;BME280;13153;52.316;21.166;2023-07-13T02:17:16;99954.00;;;24.97;57.19
34124;BME280;13153;52.316;21.166;2023-07-13T02:19:42;99960.28;;;24.97;57.31
34124;BME280;13153;52.316;21.166;2023-07-13T02:22:07;99959.41;;;24.95;56.81
34124;BME280;13153;52.316;21.166;2023-07-13T02:24:33;99959.28;;;25.00;57.30
34124;BME280;13153;52.316;21.166;2023-07-13T02:26:59;99959.28;;;25.00;57.33
34124;BME280;13153;52.316;21.166;2023-07-13T02:29:25;99971.97;;;24.96;57.38
34124;BME280;13153;52.316;21.166;2023-07-13T02:31:51;99968.50;;;24.93;56.94
34124;BME280;13153;52.316;21.166;2023-07-13T02:34:16;99973.00;;;24.92;57.11
34124;BME280;13153;52.316;21.166;2023-07-13T02:36:42;99972.16;;;24.90;57.56
34124;BME280;13153;52.316;21.166;2023-07-13T02:39:09;99973.22;;;24.86;57.38
34124;BME280;13153;52.316;21.166;2023-07-13T02:41:36;99967.84;;;24.86;57.55
34124;BME280;13153;52.316;21.166;2023-07-13T02:44:02;99968.72;;;24.87;57.76
34124;BME280;13153;52.316;21.166;2023-07-13T02:46:34;99983.81;;;24.91;57.37
34124;BME280;13153;52.316;21.166;2023-07-13T02:49:00;99972.88;;;24.95;57.59
34124;BME280;13153;52.316;21.166;2023-07-13T02:51:27;99971.91;;;24.98;57.28
34124;BME280;13153;52.316;21.166;2023-07-13T02:53:52;99980.69;;;25.03;57.44
34124;BME280;13153;52.316;21.166;2023-07-13T02:56:27;99975.94;;;25.10;56.99
34124;BME280;13153;52.316;21.166;2023-07-13T02:58:53;99968.56;;;25.15;56.83
34124;BME280;13153;52.316;21.166;2023-07-13T03:01:20;99963.81;;;25.21;56.79
34124;BME280;13153;52.316;21.166;2023-07-13T03:03:48;99971.81;;;25.23;56.67
34124;BME280;13153;52.316;21.166;2023-07-13T03:06:15;99969.13;;;25.23;56.65
34124;BME280;13153;52.316;21.166;2023-07-13T03:08:43;99971.88;;;25.21;56.66
34124;BME280;13153;52.316;21.166;2023-07-13T03:11:14;99975.56;;;25.19;56.58
34124;BME280;13153;52.316;21.166;2023-07-13T03:13:41;99977.28;;;25.21;56.57
34124;BME280;13153;52.316;21.166;2023-07-13T03:16:09;99970.94;;;25.22;56.51
34124;BME280;13153;52.316;21.166;2023-07-13T03:18:36;99976.34;;;25.22;56.68
34124;BME280;13153;52.316;21.166;2023-07-13T03:21:03;99973.63;;;25.22;56.46
34124;BME280;13153;52.316;21.166;2023-07-13T03:23:29;99970.19;;;25.19;56.71
34124;BME280;13153;52.316;21.166;2023-07-13T03:26:13;99969.31;;;25.18;56.83
34124;BME280;13153;52.316;21.166;2023-07-13T03:28:40;99979.09;;;25.21;56.84
34124;BME280;13153;52.316;21.166;2023-07-13T03:31:11;99973.53;;;25.25;56.56
34124;BME280;13153;52.316;21.166;2023-07-13T03:33:37;99970.63;;;25.30;56.42
34124;BME280;13153;52.316;21.166;2023-07-13T03:36:05;99983.09;;;25.32;56.20
34124;BME280;13153;52.316;21.166;2023-07-13T03:38:32;99975.50;;;25.42;56.02
34124;BME280;13153;52.316;21.166;2023-07-13T03:40:58;99964.69;;;25.65;55.43
34124;BME280;13153;52.316;21.166;2023-07-13T03:43:24;99963.72;;;25.88;54.70
34124;BME280;13153;52.316;21.166;2023-07-13T03:45:50;99949.34;;;26.08;54.30
34124;BME280;13153;52.316;21.166;2023-07-13T03:48:16;99944.38;;;26.40;53.68
34124;BME280;13153;52.316;21.166;2023-07-13T03:50:42;99950.25;;;26.87;52.27
34124;BME280;13153;52.316;21.166;2023-07-13T03:53:08;99954.75;;;27.24;50.98
34124;BME280;13153;52.316;21.166;2023-07-13T03:55:34;99947.34;;;27.46;50.34
34124;BME280;13153;52.316;21.166;2023-07-13T03:58:31;99946.94;;;27.90;49.71
34124;BME280;13153;52.316;21.166;2023-07-13T04:00:58;99944.19;;;28.42;48.36
34124;BME280;13153;52.316;21.166;2023-07-13T04:03:25;99946.50;;;28.98;47.11
34124;BME280;13153;52.316;21.166;2023-07-13T04:05:50;99952.63;;;29.33;46.11
34124;BME280;13153;52.316;21.166;2023-07-13T04:08:16;99957.22;;;29.63;45.65
34124;BME280;13153;52.316;21.166;2023-07-13T04:10:43;99972.16;;;30.01;44.98
34124;BME280;13153;52.316;21.166;2023-07-13T04:13:09;99968.41;;;30.32;44.11
34124;BME280;13153;52.316;21.166;2023-07-13T04:15:34;99970.78;;;30.67;43.85
34124;BME280;13153;52.316;21.166;2023-07-13T04:18:00;99978.53;;;31.01;43.09
34124;BME280;13153;52.316;21.166;2023-07-13T04:20:26;99984.91;;;31.29;42.68
34124;BME280;13153;52.316;21.166;2023-07-13T04:22:52;99983.19;;;31.69;41.86
34124;BME280;13153;52.316;21.166;2023-07-13T04:25:20;99988.97;;;32.16;40.85
34124;BME280;13153;52.316;21.166;2023-07-13T04:27:46;99999.13;;;32.40;40.01
34124;BME280;13153;52.316;21.166;2023-07-13T04:30:12;100006.22;;;32.68;40.01
34124;BME280;13153;52.316;21.166;2023-07-13T04:32:38;99999.56;;;33.10;39.53
34124;BME280;13153;52.316;21.166;2023-07-13T04:35:05;100015.50;;;33.76;37.57
34124;BME280;13153;52.316;21.166;2023-07-13T04:37:30;100019.19;;;34.47;36.96
34124;BME280;13153;52.316;21.166;2023-07-13T04:39:56;100028.47;;;35.35;36.10
34124;BME280;13153;52.316;21.166;2023-07-13T04:42:22;100021.88;;;35.92;34.23
34124;BME280;13153;52.316;21.166;2023-07-13T04:44:52;100028.13;;;35.18;35.91
34124;BME280;13153;52.316;21.166;2023-07-13T04:47:18;100024.50;;;34.13;37.77
34124;BME280;13153;52.316;21.166;2023-07-13T04:49:45;100026.81;;;33.59;38.94
34124;BME280;13153;52.316;21.166;2023-07-13T04:52:11;100031.81;;;33.16;40.05
34124;BME280;13153;52.316;21.166;2023-07-13T04:54:38;100028.13;;;32.66;41.07
34124;BME280;13153;52.316;21.166;2023-07-13T04:57:05;100030.34;;;32.22;42.60
34124;BME280;13153;52.316;21.166;2023-07-13T04:59:34;100042.97;;;31.83;42.81
34124;BME280;13153;52.316;21.166;2023-07-13T05:02:00;100035.09;;;31.37;43.92
34124;BME280;13153;52.316;21.166;2023-07-13T05:04:27;100033.38;;;30.94;45.04
34124;BME280;13153;52.316;21.166;2023-07-13T05:06:52;100033.03;;;30.55;46.24
34124;BME280;13153;52.316;21.166;2023-07-13T05:09:18;100028.88;;;30.20;47.38
34124;BME280;13153;52.316;21.166;2023-07-13T05:11:44;100018.78;;;29.92;47.73
34124;BME280;13153;52.316;21.166;2023-07-13T05:14:10;100031.16;;;29.66;47.85
34124;BME280;13153;52.316;21.166;2023-07-13T05:16:36;100031.75;;;29.40;48.57
34124;BME280;13153;52.316;21.166;2023-07-13T05:19:02;100037.50;;;29.18;49.33
34124;BME280;13153;52.316;21.166;2023-07-13T05:21:28;100033.97;;;29.00;49.93
34124;BME280;13153;52.316;21.166;2023-07-13T05:23:54;100034.22;;;28.96;50.28
34124;BME280;13153;52.316;21.166;2023-07-13T05:26:20;100035.34;;;28.91;50.22
34124;BME280;13153;52.316;21.166;2023-07-13T05:28:46;100036.41;;;28.89;50.79
34124;BME280;13153;52.316;21.166;2023-07-13T05:31:12;100046.34;;;28.88;50.65
34124;BME280;13153;52.316;21.166;2023-07-13T05:33:39;100053.09;;;28.97;50.78
34124;BME280;13153;52.316;21.166;2023-07-13T05:36:06;100053.19;;;28.96;50.59
34124;BME280;13153;52.316;21.166;2023-07-13T05:38:32;100050.47;;;28.96;50.52
34124;BME280;13153;52.316;21.166;2023-07-13T05:40:58;100055.91;;;28.96;50.73
34124;BME280;13153;52.316;21.166;2023-07-13T05:43:24;100065.44;;;29.03;50.69
34124;BME280;13153;52.316;21.166;2023-07-13T05:45:53;100075.25;;;29.05;50.14
34124;BME280;13153;52.316;21.166;2023-07-13T05:48:19;100074.53;;;29.02;50.46
34124;BME280;13153;52.316;21.166;2023-07-13T05:50:45;100074.38;;;29.05;50.04
34124;BME280;13153;52.316;21.166;2023-07-13T05:53:12;100073.88;;;29.14;50.12
34124;BME280;13153;52.316;21.166;2023-07-13T05:55:46;100081.31;;;29.26;49.91
34124;BME280;13153;52.316;21.166;2023-07-13T05:58:17;100075.72;;;29.29;49.90
34124;BME280;13153;52.316;21.166;2023-07-13T06:00:43;100083.13;;;29.43;49.63
34124;BME280;13153;52.316;21.166;2023-07-13T06:03:09;100078.75;;;29.56;48.99
34124;BME280;13153;52.316;21.166;2023-07-13T06:05:37;100075.31;;;29.84;48.79
34124;BME280;13153;52.316;21.166;2023-07-13T06:08:04;100082.84;;;29.95;48.24
34124;BME280;13153;52.316;21.166;2023-07-13T06:10:33;100059.47;;;29.92;47.75
34124;BME280;13153;52.316;21.166;2023-07-13T06:12:59;100055.03;;;29.91;48.34
34124;BME280;13153;52.316;21.166;2023-07-13T06:15:25;100052.41;;;29.89;48.35
34124;BME280;13153;52.316;21.166;2023-07-13T06:17:51;100051.34;;;29.92;48.61
34124;BME280;13153;52.316;21.166;2023-07-13T06:20:17;100048.63;;;29.92;48.20
34124;BME280;13153;52.316;21.166;2023-07-13T06:22:42;100058.53;;;29.93;48.31
34124;BME280;13153;52.316;21.166;2023-07-13T06:25:08;100057.31;;;29.83;47.48
34124;BME280;13153;52.316;21.166;2023-07-13T06:27:34;100061.25;;;29.77;47.15
34124;BME280;13153;52.316;21.166;2023-07-13T06:30:00;100052.56;;;29.86;47.37
34124;BME280;13153;52.316;21.166;2023-07-13T06:32:26;100055.63;;;29.96;47.23
34124;BME280;13153;52.316;21.166;2023-07-13T06:34:52;100056.72;;;30.23;46.64
34124;BME280;13153;52.316;21.166;2023-07-13T06:37:18;100058.72;;;30.50;45.42
34124;BME280;13153;52.316;21.166;2023-07-13T06:39:44;100049.28;;;30.85;45.26
34124;BME280;13153;52.316;21.166;2023-07-13T06:42:10;100037.91;;;31.36;43.86
34124;BME280;13153;52.316;21.166;2023-07-13T06:44:36;100046.66;;;32.61;39.84
34124;BME280;13153;52.316;21.166;2023-07-13T06:47:02;100057.38;;;33.28;37.97
34124;BME280;13153;52.316;21.166;2023-07-13T06:49:28;100057.44;;;33.88;37.53
34124;BME280;13153;52.316;21.166;2023-07-13T06:51:54;100063.78;;;35.27;34.42
34124;BME280;13153;52.316;21.166;2023-07-13T06:54:20;100061.41;;;36.75;32.02
34124;BME280;13153;52.316;21.166;2023-07-13T06:56:45;100059.16;;;37.90;28.84
34124;BME280;13153;52.316;21.166;2023-07-13T06:59:11;100061.88;;;38.87;28.87
34124;BME280;13153;52.316;21.166;2023-07-13T07:01:37;100064.16;;;39.48;26.19
34124;BME280;13153;52.316;21.166;2023-07-13T07:04:04;100063.16;;;39.94;27.14
34124;BME280;13153;52.316;21.166;2023-07-13T07:06:30;100057.94;;;40.62;26.79
34124;BME280;13153;52.316;21.166;2023-07-13T07:08:56;100051.19;;;41.00;25.89
34124;BME280;13153;52.316;21.166;2023-07-13T07:11:25;100047.00;;;41.22;25.04
34124;BME280;13153;52.316;21.166;2023-07-13T07:13:52;100034.13;;;41.39;24.73
34124;BME280;13153;52.316;21.166;2023-07-13T07:16:20;100035.53;;;41.43;24.40
34124;BME280;13153;52.316;21.166;2023-07-13T07:18:47;100044.19;;;41.48;25.16
34124;BME280;13153;52.316;21.166;2023-07-13T07:21:13;100044.31;;;41.80;23.39
34124;BME280;13153;52.316;21.166;2023-07-13T07:23:40;100045.75;;;42.01;23.95
34124;BME280;13153;52.316;21.166;2023-07-13T07:26:06;100056.09;;;41.99;23.39
34124;BME280;13153;52.316;21.166;2023-07-13T07:28:34;100060.78;;;41.48;23.38
34124;BME280;13153;52.316;21.166;2023-07-13T07:31:00;100057.75;;;41.07;22.65
34124;BME280;13153;52.316;21.166;2023-07-13T07:33:26;100057.59;;;41.09;22.52
34124;BME280;13153;52.316;21.166;2023-07-13T07:35:52;100067.94;;;41.07;23.09
34124;BME280;13153;52.316;21.166;2023-07-13T07:38:19;100066.56;;;40.77;23.06
34124;BME280;13153;52.316;21.166;2023-07-13T07:40:44;100073.56;;;40.53;23.27
34124;BME280;13153;52.316;21.166;2023-07-13T07:43:12;100068.38;;;40.15;24.01
34124;BME280;13153;52.316;21.166;2023-07-13T07:45:39;100063.59;;;39.89;24.06
34124;BME280;13153;52.316;21.166;2023-07-13T07:48:07;100064.34;;;39.64;24.89
34124;BME280;13153;52.316;21.166;2023-07-13T07:50:35;100050.81;;;39.16;24.97
34124;BME280;13153;52.316;21.166;2023-07-13T07:53:01;100074.97;;;38.66;25.81
34124;BME280;13153;52.316;21.166;2023-07-13T07:55:27;100052.09;;;38.17;27.09
34124;BME280;13153;52.316;21.166;2023-07-13T07:57:54;100055.94;;;37.85;26.79
34124;BME280;13153;52.316;21.166;2023-07-13T08:00:20;100055.94;;;37.85;26.83
34124;BME280;13153;52.316;21.166;2023-07-13T08:02:46;100067.41;;;38.00;27.70
34124;BME280;13153;52.316;21.166;2023-07-13T08:05:14;100064.50;;;37.92;26.06
34124;BME280;13153;52.316;21.166;2023-07-13T08:07:40;100059.16;;;37.41;26.43
34124;BME280;13153;52.316;21.166;2023-07-13T08:10:07;100057.47;;;36.56;27.78
34124;BME280;13153;52.316;21.166;2023-07-13T08:12:37;100055.13;;;35.88;28.87
34124;BME280;13153;52.316;21.166;2023-07-13T08:15:05;100060.44;;;35.46;29.04
34124;BME280;13153;52.316;21.166;2023-07-13T08:17:32;100056.47;;;35.17;28.71
34124;BME280;13153;52.316;21.166;2023-07-13T08:19:57;100064.50;;;35.29;30.25
34124;BME280;13153;52.316;21.166;2023-07-13T08:22:23;100054.09;;;35.46;29.88
34124;BME280;13153;52.316;21.166;2023-07-13T08:24:49;100060.69;;;35.43;29.95
34124;BME280;13153;52.316;21.166;2023-07-13T08:27:23;100058.06;;;35.41;29.72
34124;BME280;13153;52.316;21.166;2023-07-13T08:29:50;100058.94;;;35.64;29.62
34124;BME280;13153;52.316;21.166;2023-07-13T08:32:17;100057.44;;;35.60;29.04
34124;BME280;13153;52.316;21.166;2023-07-13T08:34:43;100060.44;;;35.13;30.38
34124;BME280;13153;52.316;21.166;2023-07-13T08:37:10;100061.91;;;34.94;30.12
34124;BME280;13153;52.316;21.166;2023-07-13T08:39:35;100055.16;;;34.65;30.42
34124;BME280;13153;52.316;21.166;2023-07-13T08:42:11;100059.72;;;34.53;31.56
34124;BME280;13153;52.316;21.166;2023-07-13T08:45:06;100057.28;;;34.13;30.83
34124;BME280;13153;52.316;21.166;2023-07-13T08:47:37;100062.63;;;34.15;30.79
34124;BME280;13153;52.316;21.166;2023-07-13T08:50:05;100062.03;;;34.23;30.66
34124;BME280;13153;52.316;21.166;2023-07-13T08:52:41;100068.50;;;34.46;31.98
34124;BME280;13153;52.316;21.166;2023-07-13T08:55:35;100074.41;;;34.63;30.69
34124;BME280;13153;52.316;21.166;2023-07-13T08:58:13;100086.25;;;34.40;31.28
34124;BME280;13153;52.316;21.166;2023-07-13T09:03:32;100070.84;;;34.39;30.86
34124;BME280;13153;52.316;21.166;2023-07-13T09:06:02;100072.81;;;34.37;31.00
34124;BME280;13153;52.316;21.166;2023-07-13T09:09:02;100068.22;;;34.37;32.21
34124;BME280;13153;52.316;21.166;2023-07-13T09:14:33;100074.94;;;34.21;31.67
34124;BME280;13153;52.316;21.166;2023-07-13T09:17:12;100079.00;;;34.04;31.71
34124;BME280;13153;52.316;21.166;2023-07-13T09:19:41;100086.47;;;33.89;32.49
34124;BME280;13153;52.316;21.166;2023-07-13T09:22:14;100096.53;;;33.76;32.61
34124;BME280;13153;52.316;21.166;2023-07-13T09:24:52;100093.25;;;33.47;31.51
34124;BME280;13153;52.316;21.166;2023-07-13T09:27:31;100098.91;;;33.06;31.22
34124;BME280;13153;52.316;21.166;2023-07-13T09:30:35;100093.13;;;32.72;32.03
34124;BME280;13153;52.316;21.166;2023-07-13T09:33:03;100097.31;;;32.51;31.95
34124;BME280;13153;52.316;21.166;2023-07-13T09:35:30;100100.47;;;32.32;32.47
34124;BME280;13153;52.316;21.166;2023-07-13T09:38:15;100082.69;;;31.85;32.85
34124;BME280;13153;52.316;21.166;2023-07-13T09:43:39;100092.16;;;30.80;34.38
34124;BME280;13153;52.316;21.166;2023-07-13T09:46:20;100084.97;;;30.35;35.52
34124;BME280;13153;52.316;21.166;2023-07-13T09:48:47;100082.09;;;30.22;35.80
34124;BME280;13153;52.316;21.166;2023-07-13T09:51:15;100070.91;;;30.13;36.50
34124;BME280;13153;52.316;21.166;2023-07-13T09:53:43;100074.59;;;30.12;36.61
34124;BME280;13153;52.316;21.166;2023-07-13T09:56:29;100074.38;;;30.31;37.42
34124;BME280;13153;52.316;21.166;2023-07-13T09:58:56;100073.78;;;30.55;37.21
34124;BME280;13153;52.316;21.166;2023-07-13T10:01:36;100066.25;;;30.75;37.38
34124;BME280;13153;52.316;21.166;2023-07-13T10:04:12;100063.44;;;30.76;37.68
34124;BME280;13153;52.316;21.166;2023-07-13T10:06:40;100059.06;;;30.74;38.28
34124;BME280;13153;52.316;21.166;2023-07-13T10:09:09;100065.56;;;30.57;38.54
34124;BME280;13153;52.316;21.166;2023-07-13T10:11:37;100053.25;;;30.06;38.02
34124;BME280;13153;52.316;21.166;2023-07-13T10:14:20;100054.84;;;29.78;38.77
34124;BME280;13153;52.316;21.166;2023-07-13T10:17:00;100044.88;;;29.63;39.08
34124;BME280;13153;52.316;21.166;2023-07-13T10:19:32;100038.06;;;29.40;39.44
34124;BME280;13153;52.316;21.166;2023-07-13T10:22:25;100043.13;;;29.46;39.58
34124;BME280;13153;52.316;21.166;2023-07-13T10:24:54;100051.00;;;29.35;39.76
34124;BME280;13153;52.316;21.166;2023-07-13T10:27:34;100033.66;;;29.22;39.56
34124;BME280;13153;52.316;21.166;2023-07-13T10:30:24;100025.25;;;29.11;39.94
34124;BME280;13153;52.316;21.166;2023-07-13T10:32:58;100020.09;;;29.06;40.37
34124;BME280;13153;52.316;21.166;2023-07-13T10:35:27;100015.09;;;28.99;39.92
34124;BME280;13153;52.316;21.166;2023-07-13T10:38:11;100017.19;;;28.93;40.50
34124;BME280;13153;52.316;21.166;2023-07-13T10:41:03;100020.06;;;28.90;41.13
34124;BME280;13153;52.316;21.166;2023-07-13T10:43:43;100025.94;;;28.99;41.11
34124;BME280;13153;52.316;21.166;2023-07-13T10:46:19;100025.19;;;29.12;41.19
34124;BME280;13153;52.316;21.166;2023-07-13T10:48:55;100009.81;;;29.29;41.64
34124;BME280;13153;52.316;21.166;2023-07-13T10:51:23;100023.56;;;29.41;41.09
34124;BME280;13153;52.316;21.166;2023-07-13T10:54:15;100044.44;;;29.55;40.60
34124;BME280;13153;52.316;21.166;2023-07-13T10:56:43;100053.19;;;29.60;40.21
34124;BME280;13153;52.316;21.166;2023-07-13T11:02:25;100048.75;;;29.59;40.21
34124;BME280;13153;52.316;21.166;2023-07-13T11:04:55;100045.16;;;29.58;40.77
34124;BME280;13153;52.316;21.166;2023-07-13T11:09:55;100053.31;;;29.43;42.39
34124;BME280;13153;52.316;21.166;2023-07-13T11:19:54;100087.59;;;29.11;43.34
34124;BME280;13153;52.316;21.166;2023-07-13T11:25:36;100104.50;;;28.99;44.90
34124;BME280;13153;52.316;21.166;2023-07-13T11:28:17;100099.56;;;28.89;45.23
34124;BME280;13153;52.316;21.166;2023-07-13T11:36:23;100124.19;;;28.50;47.79
34124;BME280;13153;52.316;21.166;2023-07-13T11:39:28;100135.28;;;28.29;48.94
34124;BME280;13153;52.316;21.166;2023-07-13T11:42:00;100138.63;;;28.15;49.33
34124;BME280;13153;52.316;21.166;2023-07-13T11:44:29;100134.84;;;28.00;50.36
34124;BME280;13153;52.316;21.166;2023-07-13T11:46:59;100138.81;;;27.93;50.78
34124;BME280;13153;52.316;21.166;2023-07-13T11:49:31;100129.22;;;27.86;51.13
34124;BME280;13153;52.316;21.166;2023-07-13T11:51:58;100133.84;;;27.84;51.36
34124;BME280;13153;52.316;21.166;2023-07-13T11:54:32;100130.25;;;27.83;51.32
34124;BME280;13153;52.316;21.166;2023-07-13T11:59:54;100130.34;;;27.82;51.83
34124;BME280;13153;52.316;21.166;2023-07-13T12:02:40;100139.19;;;27.85;51.72
34124;BME280;13153;52.316;21.166;2023-07-13T12:05:13;100136.31;;;27.88;50.91
34124;BME280;13153;52.316;21.166;2023-07-13T12:07:40;100138.50;;;27.99;50.57
34124;BME280;13153;52.316;21.166;2023-07-13T12:10:19;100145.13;;;28.11;51.04
34124;BME280;13153;52.316;21.166;2023-07-13T12:12:58;100150.84;;;28.23;50.78
34124;BME280;13153;52.316;21.166;2023-07-13T12:15:47;100146.72;;;28.34;51.50
34124;BME280;13153;52.316;21.166;2023-07-13T12:20:41;100148.63;;;28.49;51.65
34124;BME280;13153;52.316;21.166;2023-07-13T12:23:30;100143.22;;;28.49;51.73
34124;BME280;13153;52.316;21.166;2023-07-13T12:26:00;100146.25;;;28.43;51.19
34124;BME280;13153;52.316;21.166;2023-07-13T12:28:43;100144.72;;;28.37;51.37
34124;BME280;13153;52.316;21.166;2023-07-13T12:31:40;100137.91;;;28.30;51.03
34124;BME280;13153;52.316;21.166;2023-07-13T12:34:14;100129.28;;;28.22;51.80
34124;BME280;13153;52.316;21.166;2023-07-13T12:37:11;100119.03;;;28.10;51.35
34124;BME280;13153;52.316;21.166;2023-07-13T12:39:46;100116.13;;;27.95;51.47
34124;BME280;13153;52.316;21.166;2023-07-13T12:42:29;100126.09;;;27.76;51.47
34124;BME280;13153;52.316;21.166;2023-07-13T12:45:05;100119.00;;;27.55;51.91
34124;BME280;13153;52.316;21.166;2023-07-13T12:47:44;100124.69;;;27.49;52.60
34124;BME280;13153;52.316;21.166;2023-07-13T12:50:27;100115.78;;;27.47;52.80
34124;BME280;13153;52.316;21.166;2023-07-13T12:53:02;100108.41;;;27.50;53.17
34124;BME280;13153;52.316;21.166;2023-07-13T12:55:30;100113.69;;;27.53;53.44
34124;BME280;13153;52.316;21.166;2023-07-13T12:58:03;100110.81;;;27.56;53.47
34124;BME280;13153;52.316;21.166;2023-07-13T13:00:38;100113.41;;;27.59;53.43
34124;BME280;13153;52.316;21.166;2023-07-13T13:03:34;100115.69;;;27.69;53.49
34124;BME280;13153;52.316;21.166;2023-07-13T13:06:02;100116.41;;;27.72;53.33
34124;BME280;13153;52.316;21.166;2023-07-13T13:08:35;100119.66;;;27.79;53.07
34124;BME280;13153;52.316;21.166;2023-07-13T13:11:02;100117.63;;;27.84;53.10
34124;BME280;13153;52.316;21.166;2023-07-13T13:13:28;100114.03;;;27.83;53.78
34124;BME280;13153;52.316;21.166;2023-07-13T13:15:54;100114.31;;;27.77;53.33
34124;BME280;13153;52.316;21.166;2023-07-13T13:18:23;100109.31;;;27.70;53.09
34124;BME280;13153;52.316;21.166;2023-07-13T13:20:52;100109.88;;;27.57;53.10
34124;BME280;13153;52.316;21.166;2023-07-13T13:23:20;100110.09;;;27.34;53.64
34124;BME280;13153;52.316;21.166;2023-07-13T13:25:49;100116.19;;;27.19;53.41
34124;BME280;13153;52.316;21.166;2023-07-13T13:28:19;100119.34;;;27.10;53.96
34124;BME280;13153;52.316;21.166;2023-07-13T13:30:49;100115.31;;;27.00;54.25
34124;BME280;13153;52.316;21.166;2023-07-13T13:33:19;100112.91;;;26.92;54.40
34124;BME280;13153;52.316;21.166;2023-07-13T13:35:45;100120.41;;;26.85;54.88